Latest Coastal Weather Observations for Larapuna (Eddystone Point)

IDT60701

Issued at 10:21 am EST Saturday 25 April 2015 (issued every 10 minutes, with the page automatically refreshed every 10 minutes)

About coastal observations | Map of coastal stations | Coastal observations for TAS | Marine services | Other Formats
Station Details ID: 092045 Name: LARAPUNA (EDDYSTONE POINT) Lat: -40.99 Lon: 148.35 Height: 19.7 m
Data from the previous 72 hours. | See also: Recent months at Larapuna (Eddystone Point)
Date/Time
EST
Temp

°C
Wind Pressure Rain
since 9am
mm
Weather Cloud Vis
km
Sea
Height
m
Swell
Dir
 
Speed
knots
Gust
knots
hPa Trend Height
m
Period
s
Dir
25/10:00am 16.1 S 22 26 1008.0 - 0.0 - - - - - - -
25/09:30am 15.4 S 22 26 1007.8 - 0.0 - - - - - - -
25/09:00am 15.0 S 23 26 1007.7 - 23.8 - - - - - - -
25/08:30am 15.1 S 23 28 1007.5 - 23.8 - - - - - - -
25/08:00am 14.7 S 22 26 1007.3 - 23.8 - - - - - - -
25/07:30am 14.4 SSE 21 24 1006.8 - 23.8 - - - - - - -
25/07:00am 14.0 SSE 18 21 1006.3 - 23.8 - - - - - - -
25/06:30am 14.2 S 19 21 1005.7 - 23.8 - - - - - - -
25/06:00am 14.1 S 17 20 1005.4 - 23.8 - - - - - - -
25/05:30am 14.1 SSE 17 20 1005.2 - 23.8 - - - - - - -
25/05:00am 13.8 SSE 17 19 1005.0 - 23.8 - - - - - - -
25/04:30am 13.9 S 15 18 1004.8 - 23.8 - - - - - - -
25/04:00am 13.9 S 12 16 1004.7 - 23.8 - - - - - - -
25/03:30am 13.8 S 12 15 1004.4 - 23.8 - - - - - - -
25/03:00am 13.4 S 11 13 1004.2 - 23.8 Recent precip. - - - - - -
25/02:30am 13.2 S 10 14 1004.1 - 23.8 - - - - - - -
25/02:00am 13.1 SW 7 9 1004.0 - 23.6 - - - - - - -
25/01:30am 13.0 SW 6 7 1003.8 - 23.6 - - - - - - -
25/01:00am 13.3 SSW 9 11 1003.7 - 23.6 - - - - - - -
25/12:30am 13.3 SW 12 14 1003.8 - 23.4 - - - - - - -
25/12:00am 13.9 S 15 17 1003.4 - 23.4 Recent precip. - - - - - -
 
Date/Time
EST
Temp

°C
Wind Pressure Rain
since 9am
mm
Weather Cloud Vis
km
Sea
Height
m
Swell
Dir
 
Speed
knots
Gust
knots
hPa Trend Height
m
Period
s
Dir
24/11:30pm 13.7 SSW 16 18 1003.0 - 23.2 - - - - - - -
24/11:00pm 13.4 S 17 20 1002.9 - 23.2 - - - - - - -
24/10:30pm 13.4 SSW 19 22 1002.8 - 23.2 - - - - - - -
24/10:00pm 13.6 SSW 20 23 1002.5 - 23.2 - - - - - - -
24/09:30pm 13.8 S 18 22 1002.5 - 23.2 - - - - - - -
24/09:00pm 13.8 SSE 22 26 1001.4 - 23.2 Rain - - - - - -
24/08:46pm 13.8 S 19 24 1001.4 - 22.8 - - - - - - -
24/08:30pm 13.5 S 15 22 1002.5 - 21.6 - - - - - - -
24/08:28pm 13.4 S 17 24 1002.5 - 21.4 - - - - - - -
24/08:00pm 13.7 SW 20 25 1002.4 - 17.8 - - - - - - -
24/07:47pm 14.3 S 19 24 1002.1 - 15.8 - - - - - - -
24/07:30pm 14.5 SSE 18 21 1001.8 - 14.8 - - - - - - -
24/07:00pm 14.7 SSE 14 16 1001.9 - 12.6 - - - - - - -
24/06:30pm 14.8 SSE 11 14 1001.9 - 12.2 - - - - - - -
24/06:00pm 14.9 S 10 12 1001.6 - 12.0 Rain - - - - - -
24/05:30pm 14.7 S 9 11 1001.4 - 10.8 - - - - - - -
24/05:00pm 14.6 SSE 11 13 1001.2 - 10.4 - - - - - - -
24/04:30pm 14.7 SSE 10 11 1001.1 - 10.2 - - - - - - -
24/04:00pm 14.7 SSE 10 13 1001.2 - 10.0 - - - - - - -
24/03:30pm 14.7 SSE 10 13 1001.4 - 9.8 - - - - - - -
24/03:00pm 14.7 SSE 11 13 1001.4 - 9.8 Recent precip. - - - - - -
24/02:30pm 14.7 S 11 12 1001.6 - 9.8 - - - - - - -
24/02:00pm 14.6 S 11 13 1001.8 - 9.4 - - - - - - -
24/01:30pm 14.6 S 11 12 1001.9 - 8.0 - - - - - - -
24/01:00pm 14.7 S 10 12 1002.2 - 5.0 - - - - - - -
24/12:30pm 14.9 S 10 12 1002.5 - 3.6 - - - - - - -
24/12:00pm 14.9 S 9 11 1002.9 - 3.0 - - - - - - -
24/11:30am 15.5 S 10 11 1003.4 - 3.0 - - - - - - -
24/11:00am 15.0 S 11 13 1003.6 - 3.0 - - - - - - -
24/10:30am 14.6 SSW 11 13 1003.9 - 3.0 - - - - - - -
24/10:00am 14.3 SSW 12 13 1004.1 - 2.4 - - - - - - -
24/09:30am 14.2 S 11 13 1004.3 - 1.8 - - - - - - -
24/09:00am 14.0 SSW 12 13 1004.7 - 2.6 Rain - - - - - -
24/08:30am 14.1 S 11 13 1004.8 - 2.0 - - - - - - -
24/08:00am 14.1 S 11 13 1004.9 - 1.6 - - - - - - -
24/07:30am 14.0 S 12 14 1004.9 - 1.0 - - - - - - -
24/07:00am 13.9 SSW 13 14 1005.0 - 0.6 - - - - - - -
24/06:30am 13.9 SSW 12 14 1005.1 - 0.6 - - - - - - -
24/06:00am 13.9 SSW 12 14 1005.4 - 0.4 Recent precip. - - - - - -
24/05:30am 14.1 S 12 14 1005.5 - 0.4 - - - - - - -
24/05:00am 14.2 SSW 12 16 1005.9 - 0.0 - - - - - - -
24/04:30am 14.4 S 14 16 1006.0 - 0.0 - - - - - - -
24/04:00am 14.5 S 15 17 1006.0 - 0.0 - - - - - - -
24/03:30am 14.6 S 15 17 1006.5 - 0.0 - - - - - - -
24/03:00am 14.7 S 15 18 1006.7 - 0.0 - - - - - - -
24/02:30am 14.5 S 16 18 1007.3 - 0.0 - - - - - - -
24/02:00am 14.3 S 15 18 1007.7 - 0.0 - - - - - - -
24/01:30am 14.1 S 17 19 1008.0 - 0.0 - - - - - - -
24/01:00am 13.8 S 16 19 1008.6 - 0.0 - - - - - - -
24/12:30am 13.6 S 16 19 1009.2 - 0.0 - - - - - - -
24/12:00am 13.7 S 17 20 1009.8 - 0.0 - - - - - - -
 
Date/Time
EST
Temp

°C
Wind Pressure Rain
since 9am
mm
Weather Cloud Vis
km
Sea
Height
m
Swell
Dir
 
Speed
knots
Gust
knots
hPa Trend Height
m
Period
s
Dir
23/11:30pm 14.0 S 16 19 1010.3 - 0.0 - - - - - - -
23/11:00pm 13.8 S 17 20 1010.6 - 0.0 - - - - - - -
23/10:30pm 13.6 S 18 21 1011.0 - 0.0 - - - - - - -
23/10:00pm 13.4 S 20 24 1011.7 - 0.0 - - - - - - -
23/09:30pm 13.7 S 19 22 1012.3 - 0.0 - - - - - - -
23/09:00pm 14.0 SSW 20 24 1012.7 - 0.0 - - - - - - -
23/08:30pm 14.4 S 21 24 1012.7 - 0.0 - - - - - - -
23/08:00pm 14.4 S 21 24 1013.1 - 0.0 - - - - - - -
23/07:30pm 14.6 S 20 23 1013.6 - 0.0 - - - - - - -
23/07:00pm 15.1 S 21 24 1013.9 - 0.0 - - - - - - -
23/06:30pm 15.2 S 21 25 1013.9 - 0.0 - - - - - - -
23/06:00pm 15.3 S 21 25 1013.9 - 0.0 - - - - - - -
23/05:30pm 15.3 S 22 26 1013.8 - 0.0 - - - - - - -
23/05:00pm 15.5 SSE 21 26 1014.0 - 0.0 - - - - - - -
23/04:30pm 15.7 S 21 25 1014.3 - 0.0 - - - - - - -
23/04:00pm 16.1 S 21 25 1014.8 - 0.0 - - - - - - -
23/03:30pm 16.4 S 19 22 1015.3 - 0.0 - - - - - - -
23/03:00pm 16.8 S 21 23 1015.6 - 0.0 - - - - - - -
23/02:30pm 16.7 S 19 23 1016.0 - 0.0 - - - - - - -
23/02:00pm 17.3 S 20 23 1016.3 - 0.0 - - - - - - -
23/01:30pm 17.1 SSE 18 22 1016.8 - 0.0 - - - - - - -
23/01:00pm 17.0 SSE 17 21 1017.4 - 0.0 - - - - - - -
23/12:30pm 17.0 SE 15 19 1018.0 - 0.0 - - - - - - -
23/12:00pm 16.8 SE 18 23 1018.5 - 0.0 - - - - - - -
23/11:30am 17.5 SSE 17 21 1019.2 - 0.0 - - - - - - -
23/11:00am 18.2 SE 15 20 1019.5 - 0.0 - - - - - - -
23/10:30am 16.3 ESE 17 22 1019.9 - 0.0 - - - - - - -
23/10:00am 15.9 SE 17 22 1020.0 - 0.0 - - - - - - -
23/09:30am 15.9 SE 16 20 1020.0 - 0.0 - - - - - - -
23/09:00am 15.8 SE 17 23 1020.4 - 1.4 - - - - - - -
23/08:30am 16.4 SE 16 21 1020.6 - 1.4 - - - - - - -
23/08:00am 16.0 SE 17 23 1020.7 - 1.4 - - - - - - -
23/07:30am 15.4 SE 16 22 1020.8 - 1.4 - - - - - - -
23/07:00am 14.6 SSE 19 23 1020.7 - 1.4 - - - - - - -
23/06:30am 14.4 SSE 19 23 1020.6 - 1.4 - - - - - - -
23/06:00am 14.6 SSE 20 26 1020.6 - 1.2 - - - - - - -
23/05:30am 14.0 SSE 20 24 1020.6 - 1.2 - - - - - - -
23/05:00am 14.2 SE 17 21 1020.7 - 1.2 - - - - - - -
23/04:43am 14.5 S 21 26 1020.8 - 1.0 - - - - - - -
23/04:30am 14.6 S 19 25 1020.5 - 1.0 - - - - - - -
23/04:28am 14.6 S 18 25 1020.5 - 1.0 - - - - - - -
23/04:00am 14.8 SSE 19 25 1020.8 - 1.0 - - - - - - -
23/03:30am 14.4 SE 15 18 1021.0 - 1.0 - - - - - - -
23/03:00am 14.4 SE 17 21 1021.3 - 1.0 - - - - - - -
23/02:30am 14.5 SE 15 20 1021.7 - 1.0 - - - - - - -
23/02:00am 14.6 SE 15 19 1022.0 - 1.0 - - - - - - -
23/01:30am 14.6 SE 14 20 1022.4 - 1.0 - - - - - - -
23/01:00am 14.4 S 17 20 1022.7 - 1.0 - - - - - - -
23/12:30am 14.2 S 16 19 1023.0 - 0.8 - - - - - - -
23/12:00am 14.6 S 18 22 1023.3 - 0.6 Recent precip. - - - - - -
 
Date/Time
EST
Temp

°C
Wind Pressure Rain
since 9am
mm
Weather Cloud Vis
km
Sea
Height
m
Swell
Dir
 
Speed
knots
Gust
knots
hPa Trend Height
m
Period
s
Dir
22/11:30pm 14.6 SSE 15 17 1023.5 - 0.6 - - - - - - -
22/11:00pm 15.3 SSE 16 21 1023.9 - 0.4 - - - - - - -
22/10:30pm 14.7 S 18 22 1023.8 - 0.2 - - - - - - -
22/10:00pm 14.8 S 20 24 1023.9 - 0.2 - - - - - - -
22/09:30pm 14.5 S 17 20 1024.3 - 0.2 - - - - - - -
22/09:00pm 14.9 S 18 22 1024.3 - 0.2 - - - - - - -
22/08:30pm 14.9 SSE 19 21 1024.4 - 0.2 - - - - - - -
22/08:00pm 14.8 SSE 17 21 1024.4 - 0.2 - - - - - - -
22/07:57pm 14.7 SSE 17 21 1024.4 - 0.2 - - - - - - -
22/07:30pm 15.0 S 21 24 1024.3 - 0.2 - - - - - - -
22/07:00pm 14.8 S 21 23 1024.5 - 0.2 - - - - - - -
22/06:30pm 14.7 S 20 23 1024.5 - 0.2 - - - - - - -
22/06:00pm 14.9 SSE 20 23 1024.3 - 0.2 - - - - - - -
22/05:30pm 14.8 S 20 22 1024.4 - 0.2 - - - - - - -
22/05:00pm 15.0 SSE 19 23 1024.6 - 0.2 - - - - - - -
22/04:30pm 14.8 SSE 20 25 1024.7 - 0.2 - - - - - - -
22/04:00pm 15.6 SSE 18 21 1024.9 - 0.2 - - - - - - -
22/03:30pm 15.5 SSE 19 22 1024.9 - 0.2 - - - - - - -
22/03:00pm 16.1 SSE 17 21 1025.0 - 0.2 - - - - - - -
22/02:30pm 15.3 ESE 17 24 1025.3 - 0.2 - - - - - - -
22/02:00pm 16.4 SSE 17 21 1025.5 - 0.2 - - - - - - -
22/01:30pm 15.3 SSE 19 24 1025.7 - 0.2 - - - - - - -
22/01:20pm 15.1 SSE 20 27 1025.9 - 0.2 - - - - - - -
22/01:00pm 15.3 SE 14 19 1026.1 - 0.0 - - - - - - -
22/12:30pm 16.3 SSE 17 21 1026.4 - 0.0 - - - - - - -
22/12:00pm 17.0 SSE 19 23 1026.7 - 0.0 - - - - - - -
22/11:30am 18.1 SSE 18 23 1027.1 - 0.0 - - - - - - -
22/11:00am 16.7 SSE 18 23 1027.6 - 0.0 - - - - - - -
22/10:30am 15.7 SE 17 24 1027.8 - 0.0 - - - - - - -

Other Formats:

Comma delimited format used in spreadsheet applications
http://www.bom.gov.au/fwo/IDT60701/IDT60701.94983.axf

JavaScript Object Notation format (JSON) in row-major order
http://www.bom.gov.au/fwo/IDT60701/IDT60701.94983.json